Time;durP1;ratioP1;P1;durP2;ratioP2;P2;SDS_P1;SDS_P2;PMS_P1;PMS_P2;Temp;Humidity;BMP_temperature;BMP_pressure;BME280_temperature;BME280_humidity;BME280_pressure;Samples;Min_cycle;Max_cycle;Signal;HPM_P1;HPM_P2
2021/03/04 00:02:19;;;;;;;55.95;31.55;;;;;;;9.64;50.67;99427.86;251452;1157;101765;-72
2021/03/04 00:07:23;;;;;;;50.85;29.40;;;;;;;9.66;50.22;99420.69;251294;1150;101143;-67
2021/03/04 00:12:25;;;;;;;50.20;28.90;;;;;;;9.69;50.44;99416.06;251408;1158;101218;-67
2021/03/04 00:17:27;;;;;;;52.00;29.85;;;;;;;9.72;50.34;99415.05;250841;1151;101929;-66
2021/03/04 00:22:29;;;;;;;52.37;30.17;;;;;;;9.71;50.29;99416.86;250332;1158;103126;-69
2021/03/04 00:27:33;;;;;;;48.20;29.00;;;;;;;9.69;50.26;99413.41;251106;1149;101989;-66
2021/03/04 00:32:37;;;;;;;49.50;28.90;;;;;;;9.57;50.06;99416.69;250998;1158;101854;-67
2021/03/04 00:37:40;;;;;;;54.80;29.70;;;;;;;9.49;50.03;99405.61;252016;1149;100990;-66
2021/03/04 00:42:45;;;;;;;52.27;29.67;;;;;;;9.45;50.64;99390.78;251302;1157;102412;-66
2021/03/04 00:47:48;;;;;;;50.80;27.73;;;;;;;9.40;50.84;99382.17;251388;1151;101212;-66
2021/03/04 00:52:50;;;;;;;48.60;27.80;;;;;;;9.37;50.35;99384.98;251612;1157;101346;-67
2021/03/04 00:57:53;;;;;;;48.37;27.47;;;;;;;9.34;50.64;99370.09;251347;1151;101229;-68
2021/03/04 01:02:56;;;;;;;46.60;27.78;;;;;;;9.30;50.78;99363.19;251541;1157;101096;-67
2021/03/04 01:07:58;;;;;;;50.00;27.60;;;;;;;9.31;50.50;99361.42;251341;1151;102441;-64
2021/03/04 01:13:01;;;;;;;45.70;27.30;;;;;;;9.32;50.66;99342.73;251543;1151;101019;-67
2021/03/04 01:18:05;;;;;;;50.70;27.90;;;;;;;9.31;50.90;99340.17;251372;1151;102373;-67
2021/03/04 01:23:07;;;;;;;45.70;26.55;;;;;;;9.27;50.48;99338.59;250840;1152;102035;-67
2021/03/04 01:28:09;;;;;;;45.60;26.15;;;;;;;9.21;50.59;99327.36;251228;1151;101114;-67
2021/03/04 01:33:12;;;;;;;43.90;25.70;;;;;;;9.18;50.69;99322.20;251466;1157;102610;-66
2021/03/04 01:38:14;;;;;;;51.80;28.05;;;;;;;9.17;51.01;99306.34;251523;1150;101006;-66
2021/03/04 01:43:16;;;;;;;50.30;27.80;;;;;;;9.10;50.90;99310.25;250916;1151;100936;-67
2021/03/04 01:48:18;;;;;;;50.85;28.75;;;;;;;9.02;50.95;99312.45;251022;1152;101149;-68
2021/03/04 01:53:22;;;;;;;45.48;27.25;;;;;;;8.95;50.85;99307.45;250977;1158;100910;-69
2021/03/04 01:58:24;;;;;;;47.50;28.13;;;;;;;8.91;50.89;99307.70;250935;1151;102903;-65
2021/03/04 02:03:26;;;;;;;52.63;27.30;;;;;;;8.87;51.50;99298.19;250907;1151;101363;-71
2021/03/04 02:08:37;;;;;;;49.80;29.03;;;;;;;8.80;51.22;99299.41;250736;1153;101347;-73
2021/03/04 02:13:51;;;;;;;49.20;28.80;;;;;;;8.67;51.53;99294.73;250783;1153;101122;-72
2021/03/04 02:18:59;;;;;;;47.95;27.65;;;;;;;8.57;51.66;99285.52;250805;1151;100988;-67
2021/03/04 02:24:19;;;;;;;49.67;29.13;;;;;;;8.45;51.31;99289.62;251341;1157;102144;-67
2021/03/04 02:29:23;;;;;;;50.30;29.05;;;;;;;8.38;51.87;99280.25;251082;1151;102315;-65
2021/03/04 02:34:27;;;;;;;47.95;28.10;;;;;;;8.31;52.12;99268.20;251531;1157;101272;-67
2021/03/04 02:39:31;;;;;;;50.30;27.15;;;;;;;8.24;52.38;99258.83;251189;1150;101114;-69
2021/03/04 02:44:36;;;;;;;50.77;28.93;;;;;;;8.23;52.51;99246.52;250816;1158;101183;-69
2021/03/04 02:49:40;;;;;;;51.10;28.70;;;;;;;8.22;52.51;99245.66;250965;1151;101419;-69
2021/03/04 02:54:47;;;;;;;48.83;27.70;;;;;;;8.20;52.52;99236.91;250721;1151;101208;-70
2021/03/04 02:59:51;;;;;;;52.55;29.10;;;;;;;8.19;52.99;99221.95;250967;1151;101125;-68
2021/03/04 03:04:55;;;;;;;49.83;28.65;;;;;;;8.20;52.73;99215.70;250794;1151;101277;-70
2021/03/04 03:09:58;;;;;;;50.75;29.55;;;;;;;8.19;52.49;99216.65;251177;1150;102133;-68
2021/03/04 03:15:01;;;;;;;50.10;29.60;;;;;;;8.21;53.17;99211.26;250875;1158;101719;-70
2021/03/04 03:20:07;;;;;;;51.85;28.95;;;;;;;8.21;52.92;99222.72;250819;1151;102121;-71
2021/03/04 03:25:16;;;;;;;52.10;28.80;;;;;;;8.23;52.92;99214.70;251415;1150;101212;-68
2021/03/04 03:30:24;;;;;;;48.25;28.15;;;;;;;8.23;53.17;99212.05;251153;1151;101254;-68
2021/03/04 03:35:27;;;;;;;50.80;29.55;;;;;;;8.23;52.75;99209.41;250892;1158;102787;-67
2021/03/04 03:40:32;;;;;;;51.20;28.20;;;;;;;8.21;53.09;99205.95;250887;1151;101358;-69
2021/03/04 03:45:40;;;;;;;49.70;28.90;;;;;;;8.19;52.94;99200.75;251653;1158;101169;-71
2021/03/04 03:50:47;;;;;;;56.30;30.20;;;;;;;8.11;53.35;99194.95;250796;1151;101140;-73
2021/03/04 03:55:53;;;;;;;52.93;30.47;;;;;;;8.07;53.78;99185.44;251007;1158;101133;-72
2021/03/04 04:00:56;;;;;;;48.57;29.00;;;;;;;8.07;53.90;99188.09;251064;1151;101210;-78
2021/03/04 04:05:59;;;;;;;50.55;28.98;;;;;;;8.02;53.94;99174.22;250802;1151;101312;-72
2021/03/04 04:11:01;;;;;;;52.23;28.27;;;;;;;8.04;53.39;99172.33;251236;1151;101440;-73
2021/03/04 04:16:26;;;;;;;49.63;29.28;;;;;;;8.03;53.94;99178.58;251020;1158;101097;-71
2021/03/04 04:21:29;;;;;;;47.95;27.00;;;;;;;8.03;54.10;99162.67;251692;1150;101083;-69
2021/03/04 04:26:33;;;;;;;57.53;29.30;;;;;;;8.06;53.89;99160.73;250922;1157;100945;-70
2021/03/04 04:31:36;;;;;;;49.95;27.05;;;;;;;8.06;54.00;99157.22;250826;1151;101402;-71
2021/03/04 04:36:38;;;;;;;50.67;27.93;;;;;;;8.07;54.00;99148.33;250873;1158;102293;-70
2021/03/04 04:41:40;;;;;;;49.03;28.60;;;;;;;8.08;53.88;99131.48;251206;1151;101141;-69
2021/03/04 04:46:42;;;;;;;56.47;28.93;;;;;;;8.10;53.23;99126.13;250208;1151;103114;-71
2021/03/04 04:51:45;;;;;;;47.27;24.97;;;;;;;8.08;53.55;99112.08;251432;1151;101181;-71
2021/03/04 04:56:47;;;;;;;50.70;27.53;;;;;;;8.03;53.99;99115.83;250983;1158;101512;-70
2021/03/04 05:01:49;;;;;;;55.05;28.75;;;;;;;8.01;53.68;99125.63;250403;1150;103125;-71
2021/03/04 05:06:51;;;;;;;51.20;28.05;;;;;;;7.98;53.62;99123.16;251316;1156;101147;-69
2021/03/04 05:12:07;;;;;;;51.95;27.85;;;;;;;7.94;53.96;99096.88;251860;1151;101091;-74
2021/03/04 05:17:12;;;;;;;51.70;27.40;;;;;;;7.92;53.51;99083.72;250613;1157;103251;-70
2021/03/04 05:22:14;;;;;;;52.10;28.30;;;;;;;7.86;53.42;99070.77;250889;1152;103120;-68
2021/03/04 05:27:16;;;;;;;55.17;28.33;;;;;;;7.81;53.78;99076.31;251586;1157;101166;-71
2021/03/04 05:32:19;;;;;;;54.35;29.15;;;;;;;7.81;54.00;99072.78;250824;1151;101058;-70
2021/03/04 05:37:21;;;;;;;50.58;27.30;;;;;;;7.82;54.07;99071.87;250861;1151;101233;-70
2021/03/04 05:42:24;;;;;;;55.20;28.47;;;;;;;7.80;54.08;99060.48;251611;1150;101138;-70
2021/03/04 05:47:27;;;;;;;54.65;29.75;;;;;;;7.82;53.51;99054.17;250935;1158;102005;-66
2021/03/04 05:52:34;;;;;;;49.90;28.85;;;;;;;7.83;54.10;99050.58;251133;1150;101251;-64
2021/03/04 05:57:36;;;;;;;55.90;27.78;;;;;;;7.81;53.43;99055.13;251303;1156;101199;-65
2021/03/04 06:02:41;;;;;;;52.10;28.80;;;;;;;7.78;53.54;99059.72;251202;1151;101293;-65
2021/03/04 06:07:45;;;;;;;57.13;29.20;;;;;;;7.76;53.64;99057.13;251085;1158;101156;-66
2021/03/04 06:12:47;;;;;;;50.10;28.35;;;;;;;7.78;54.30;99054.42;251275;1150;102450;-65
2021/03/04 06:17:56;;;;;;;46.17;24.73;;;;;;;7.78;53.81;99063.22;251280;1157;101111;-63
2021/03/04 06:22:59;;;;;;;53.73;29.23;;;;;;;7.81;53.92;99068.37;251661;1150;101136;-62
2021/03/04 06:28:01;;;;;;;57.70;28.35;;;;;;;7.79;53.90;99061.42;251214;1157;101343;-67
2021/03/04 06:33:06;;;;;;;52.60;27.40;;;;;;;7.80;54.01;99055.18;250929;1151;101059;-65
2021/03/04 06:38:15;;;;;;;;;;;;;;;7.79;53.66;99048.17;251465;1157;101745;-65
2021/03/04 06:43:25;;;;;;;49.20;27.63;;;;;;;7.80;53.72;99055.18;251799;1151;101233;-66
2021/03/04 06:48:27;;;;;;;51.95;27.65;;;;;;;7.87;53.80;99045.13;251470;1158;101062;-66
2021/03/04 06:53:31;;;;;;;49.15;26.40;;;;;;;7.99;54.39;99052.47;251018;1151;102207;-64
2021/03/04 06:58:38;;;;;;;49.80;27.67;;;;;;;8.10;53.79;99046.61;251329;1157;100939;-65
2021/03/04 07:03:47;;;;;;;50.30;25.40;;;;;;;8.22;53.90;99041.53;251781;1150;101962;-67
2021/03/04 07:09:07;;;;;;;47.63;27.18;;;;;;;8.38;53.91;99046.89;251539;1151;101736;-64
2021/03/04 07:14:10;;;;;;;52.40;26.30;;;;;;;8.50;54.27;99048.06;251519;1151;101312;-65
2021/03/04 07:19:18;;;;;;;51.20;27.10;;;;;;;8.63;54.25;99048.27;250971;1157;101465;-64
2021/03/04 07:24:21;;;;;;;51.60;27.50;;;;;;;8.74;54.32;99041.42;251377;1151;101195;-65
2021/03/04 07:29:23;;;;;;;56.05;27.85;;;;;;;8.85;54.48;99043.48;251617;1157;102012;-67
2021/03/04 07:34:26;;;;;;;51.80;27.60;;;;;;;8.95;53.91;99046.48;251265;1156;102375;-66
2021/03/04 07:39:36;;;;;;;58.87;31.87;;;;;;;8.99;53.79;99035.61;251273;1151;101029;-66
2021/03/04 07:44:39;;;;;;;65.18;29.85;;;;;;;9.03;53.92;99038.95;251619;1157;101061;-67
2021/03/04 07:49:43;;;;;;;61.05;31.95;;;;;;;9.08;53.75;99034.25;251073;1152;101062;-67
2021/03/04 07:54:48;;;;;;;61.20;32.70;;;;;;;9.08;54.28;99028.95;251086;1158;101455;-68
2021/03/04 07:59:54;;;;;;;64.20;32.40;;;;;;;9.11;53.94;99035.89;251526;1151;101299;-66
2021/03/04 08:05:05;;;;;;;65.10;33.20;;;;;;;9.10;54.13;99028.84;251020;1151;102165;-66
2021/03/04 08:10:19;;;;;;;59.20;33.65;;;;;;;9.11;54.29;99030.58;251852;1157;101147;-69
2021/03/04 08:15:33;;;;;;;61.50;32.75;;;;;;;9.16;54.56;99010.77;251636;1151;101157;-69
2021/03/04 08:20:36;;;;;;;57.20;31.70;;;;;;;9.24;54.31;99007.70;251267;1157;103653;-69
2021/03/04 08:25:38;;;;;;;61.80;32.30;;;;;;;9.29;54.45;99012.74;251344;1151;101047;-67
2021/03/04 08:30:43;;;;;;;64.20;35.00;;;;;;;9.30;54.25;99015.30;250971;1158;101112;-68
2021/03/04 08:35:49;;;;;;;62.23;33.47;;;;;;;9.36;54.28;99014.09;251160;1158;101091;-66
2021/03/04 08:40:54;;;;;;;63.65;32.80;;;;;;;9.42;54.50;99005.78;250938;1158;101025;-64
2021/03/04 08:45:58;;;;;;;71.00;36.70;;;;;;;9.52;54.80;98993.67;250953;1152;103154;-65
2021/03/04 08:51:06;;;;;;;61.70;34.50;;;;;;;9.63;54.45;98996.55;251955;1150;101745;-67
2021/03/04 08:56:10;;;;;;;64.65;35.70;;;;;;;9.88;55.97;98995.09;251469;1157;101115;-67
2021/03/04 09:01:14;;;;;;;72.55;37.55;;;;;;;10.60;56.10;98985.40;251386;1151;112107;-65
2021/03/04 09:06:17;;;;;;;63.60;34.47;;;;;;;10.98;55.52;98979.44;251333;1158;101274;-67
2021/03/04 09:11:36;;;;;;;66.90;37.80;;;;;;;11.20;54.29;98974.40;251312;1151;101835;-66
2021/03/04 09:16:45;;;;;;;64.75;33.95;;;;;;;11.72;55.09;98975.39;251603;1156;101013;-66
2021/03/04 09:21:47;;;;;;;67.10;36.55;;;;;;;12.03;54.23;98975.06;250834;1151;101315;-66
2021/03/04 09:27:07;;;;;;;67.30;36.57;;;;;;;12.00;52.36;98974.42;251296;1150;101166;-66
2021/03/04 09:32:09;;;;;;;66.35;36.95;;;;;;;11.71;52.36;98971.03;250884;1158;100938;-67
2021/03/04 09:37:14;;;;;;;69.63;38.40;;;;;;;11.44;52.30;98963.08;250923;1150;102695;-64
2021/03/04 09:42:21;;;;;;;54.90;35.27;;;;;;;11.37;52.21;98962.63;250866;1158;101233;-64
2021/03/04 09:47:32;;;;;;;63.50;35.73;;;;;;;11.32;52.62;98962.09;251180;1151;101302;-65
2021/03/04 09:52:34;;;;;;;62.43;35.88;;;;;;;11.26;52.33;98959.83;251249;1157;101091;-64
2021/03/04 09:57:41;;;;;;;68.20;37.80;;;;;;;11.24;52.39;98961.73;251295;1151;101453;-66
2021/03/04 10:02:51;;;;;;;63.77;39.17;;;;;;;11.28;52.57;98957.94;251243;1158;101547;-64
2021/03/04 10:07:59;;;;;;;77.05;40.20;;;;;;;11.36;52.59;98947.61;250849;1150;101056;-67
2021/03/04 10:13:02;;;;;;;69.73;37.53;;;;;;;11.38;52.32;98940.38;251015;1158;101391;-67
2021/03/04 10:18:15;;;;;;;72.30;38.40;;;;;;;11.45;52.24;98948.82;248656;1151;103190;-67
2021/03/04 10:23:18;;;;;;;66.70;38.20;;;;;;;11.56;52.40;98941.80;251308;1157;115059;-67
2021/03/04 10:28:20;;;;;;;70.80;40.25;;;;;;;11.68;51.84;98931.25;251050;1151;101504;-67
2021/03/04 10:33:22;;;;;;;65.47;36.93;;;;;;;11.71;51.78;98939.04;250796;1158;101226;-70
2021/03/04 10:38:24;;;;;;;66.53;36.05;;;;;;;11.72;51.63;98928.28;251112;1158;101436;-66
2021/03/04 10:43:26;;;;;;;71.40;37.95;;;;;;;11.73;51.92;98913.98;249902;1153;103262;-66
2021/03/04 10:48:28;;;;;;;65.80;36.70;;;;;;;11.79;51.65;98902.06;250741;1158;101324;-66
2021/03/04 10:53:31;;;;;;;73.03;40.28;;;;;;;11.82;51.50;98892.03;251171;1151;101625;-68
2021/03/04 10:58:33;;;;;;;73.30;41.10;;;;;;;11.89;51.41;98899.61;251382;1158;101041;-68
2021/03/04 11:03:35;;;;;;;82.30;44.20;;;;;;;11.93;51.52;98899.31;251002;1151;101183;-68
2021/03/04 11:08:38;;;;;;;72.30;42.17;;;;;;;11.95;51.69;98888.52;251927;1157;102437;-67
2021/03/04 11:13:40;;;;;;;76.95;41.65;;;;;;;11.97;51.60;98886.62;251600;1151;101270;-68
2021/03/04 11:18:42;;;;;;;67.90;37.00;;;;;;;11.90;51.38;98878.19;251418;1158;102152;-68
2021/03/04 11:23:44;;;;;;;81.30;43.60;;;;;;;11.81;51.29;98865.45;251328;1151;101097;-67
2021/03/04 11:28:47;;;;;;;75.07;42.67;;;;;;;11.79;51.50;98856.73;251171;1151;101309;-66
2021/03/04 11:33:49;;;;;;;86.30;45.20;;;;;;;11.82;51.77;98862.70;249942;1151;103011;-69
2021/03/04 11:38:51;;;;;;;88.73;46.63;;;;;;;11.86;51.45;98849.19;250996;1158;102251;-67
2021/03/04 11:43:53;;;;;;;86.40;45.70;;;;;;;11.93;51.92;98837.13;251613;1150;102591;-68
2021/03/04 11:48:55;;;;;;;74.33;44.53;;;;;;;11.93;51.90;98826.46;251216;1158;101209;-65
2021/03/04 11:53:57;;;;;;;78.97;43.47;;;;;;;11.95;51.53;98820.03;250010;1151;103148;-67
2021/03/04 11:59:02;;;;;;;76.10;43.55;;;;;;;11.99;51.46;98804.66;248859;1158;103228;-68
2021/03/04 12:04:05;;;;;;;82.70;45.30;;;;;;;11.96;51.63;98803.09;251268;1151;101172;-69
2021/03/04 12:09:08;;;;;;;81.05;46.10;;;;;;;11.96;51.90;98805.76;250967;1153;102118;-67
2021/03/04 12:14:21;;;;;;;84.15;46.40;;;;;;;11.95;51.72;98805.85;251418;1152;101526;-67
2021/03/04 12:19:23;;;;;;;80.50;47.10;;;;;;;11.98;51.45;98797.64;250960;1151;101666;-67
2021/03/04 12:24:25;;;;;;;79.20;46.00;;;;;;;11.97;51.46;98796.79;251034;1151;102383;-66
2021/03/04 12:29:27;;;;;;;72.03;37.53;;;;;;;11.95;51.50;98788.03;250966;1158;101346;-67
2021/03/04 12:34:30;;;;;;;75.70;38.70;;;;;;;11.89;51.53;98788.50;251611;1151;101440;-67
2021/03/04 12:39:32;;;;;;;71.55;41.05;;;;;;;11.81;51.40;98780.14;251125;1158;101652;-66
2021/03/04 12:44:34;;;;;;;68.70;39.55;;;;;;;11.76;51.27;98779.63;250859;1152;101205;-67
2021/03/04 12:49:36;;;;;;;75.80;42.00;;;;;;;11.71;50.96;98763.09;250908;1151;102704;-65
2021/03/04 12:54:38;;;;;;;67.90;39.65;;;;;;;11.68;50.93;98765.98;251101;1153;101046;-67
2021/03/04 12:59:40;;;;;;;68.90;40.20;;;;;;;11.65;51.39;98760.86;251189;1151;102046;-66
2021/03/04 13:04:43;;;;;;;71.90;42.40;;;;;;;11.65;51.28;98768.86;251322;1150;101346;-67
2021/03/04 13:09:45;;;;;;;74.60;42.30;;;;;;;11.65;51.68;98751.08;251315;1157;101119;-67
2021/03/04 13:14:48;;;;;;;76.60;44.70;;;;;;;11.66;51.69;98743.92;251435;1151;100965;-64
2021/03/04 13:19:50;;;;;;;71.10;40.30;;;;;;;11.70;51.82;98734.74;251643;1156;102115;-64
2021/03/04 13:24:52;;;;;;;76.83;45.83;;;;;;;11.70;51.37;98732.92;251031;1151;101856;-65
2021/03/04 13:30:06;;;;;;;80.35;46.50;;;;;;;11.74;51.71;98734.41;251446;1157;100993;-65
2021/03/04 13:35:11;;;;;;;81.70;45.43;;;;;;;11.79;51.54;98734.09;251841;1151;101112;-65
2021/03/04 13:40:13;;;;;;;76.43;44.50;;;;;;;11.87;51.98;98720.23;251355;1158;101113;-65
2021/03/04 13:45:15;;;;;;;70.50;41.70;;;;;;;11.89;52.04;98737.83;251113;1154;101046;-64
2021/03/04 13:50:18;;;;;;;77.40;42.30;;;;;;;11.86;52.07;98721.20;251029;1152;101487;-66
2021/03/04 13:55:20;;;;;;;75.10;42.10;;;;;;;11.90;52.01;98715.53;251070;1151;101108;-65
2021/03/04 14:00:23;;;;;;;71.65;40.55;;;;;;;11.90;51.77;98715.53;252050;1157;101243;-65
2021/03/04 14:05:26;;;;;;;75.55;42.60;;;;;;;11.94;51.77;98708.16;251499;1150;101087;-65
2021/03/04 14:10:28;;;;;;;68.55;42.00;;;;;;;11.91;52.17;98716.38;251317;1157;101264;-64
2021/03/04 14:15:30;;;;;;;67.97;38.10;;;;;;;11.86;51.16;98714.05;251511;1150;101392;-63
2021/03/04 14:20:33;;;;;;;75.93;40.93;;;;;;;11.84;51.53;98710.63;251614;1158;101826;-64
2021/03/04 14:25:35;;;;;;;64.30;38.50;;;;;;;11.80;51.79;98703.80;251162;1151;101101;-65
2021/03/04 14:30:45;;;;;;;73.80;39.35;;;;;;;11.79;51.66;98707.44;251130;1158;101520;-65
2021/03/04 14:35:48;;;;;;;66.88;38.35;;;;;;;11.80;51.70;98693.13;251557;1154;101131;-65
2021/03/04 14:40:51;;;;;;;67.13;36.23;;;;;;;11.76;51.27;98697.83;250902;1158;101522;-65
2021/03/04 14:45:59;;;;;;;67.20;36.60;;;;;;;11.71;51.86;98694.63;251577;1150;101399;-65
2021/03/04 14:51:02;;;;;;;69.47;38.07;;;;;;;11.65;51.62;98692.44;251015;1158;102380;-65
2021/03/04 14:56:05;;;;;;;66.37;36.40;;;;;;;11.56;51.84;98674.43;251147;1150;101070;-64
2021/03/04 15:01:11;;;;;;;64.93;37.33;;;;;;;11.55;51.50;98676.25;251338;1158;101296;-64
2021/03/04 15:06:15;;;;;;;59.35;35.65;;;;;;;11.49;51.79;98668.69;251321;1151;102499;-65
2021/03/04 15:11:17;;;;;;;60.70;36.45;;;;;;;11.44;51.90;98660.16;251731;1157;101130;-66
2021/03/04 15:16:20;;;;;;;68.03;35.53;;;;;;;11.40;51.83;98660.50;251095;1150;101282;-65
2021/03/04 15:21:22;;;;;;;71.00;36.58;;;;;;;11.37;52.21;98657.08;251042;1157;101245;-65
2021/03/04 15:26:25;;;;;;;68.35;37.70;;;;;;;11.37;52.26;98648.23;251163;1151;102164;-66
2021/03/04 15:31:33;;;;;;;72.67;39.00;;;;;;;11.39;51.98;98648.15;251503;1157;102273;-65
2021/03/04 15:36:40;;;;;;;65.80;36.20;;;;;;;11.44;52.49;98654.83;251488;1150;101076;-66
2021/03/04 15:41:44;;;;;;;62.78;36.43;;;;;;;11.42;52.10;98648.78;251032;1158;101362;-65
2021/03/04 15:46:46;;;;;;;63.20;36.00;;;;;;;11.42;51.80;98650.59;250418;1150;103095;-65
2021/03/04 15:51:50;;;;;;;64.83;36.27;;;;;;;11.39;52.42;98653.48;251013;1158;101170;-65
2021/03/04 15:56:53;;;;;;;71.30;39.80;;;;;;;11.39;52.48;98653.48;250856;1151;101444;-65
2021/03/04 16:02:16;;;;;;;64.43;39.03;;;;;;;11.36;52.78;98651.88;251035;1151;101476;-64
2021/03/04 16:07:19;;;;;;;63.60;37.05;;;;;;;11.34;52.42;98649.33;251106;1151;102083;-68
2021/03/04 16:12:22;;;;;;;66.73;38.35;;;;;;;11.32;52.85;98653.91;251609;1156;101119;-65
2021/03/04 16:17:25;;;;;;;64.45;37.10;;;;;;;11.20;52.73;98654.77;251597;1151;101192;-65
2021/03/04 16:22:28;;;;;;;69.23;39.43;;;;;;;11.12;53.46;98643.81;250950;1158;101927;-65
2021/03/04 16:27:50;;;;;;;67.50;40.65;;;;;;;11.09;53.36;98655.53;251108;1151;101683;-65
2021/03/04 16:32:54;;;;;;;69.10;37.30;;;;;;;11.02;53.32;98650.75;250938;1159;101549;-65
2021/03/04 16:37:57;;;;;;;72.95;40.60;;;;;;;10.96;53.92;98652.02;250774;1151;101667;-66
2021/03/04 16:43:00;;;;;;;76.75;41.50;;;;;;;10.91;53.80;98654.17;251043;1158;102182;-66
2021/03/04 16:48:03;;;;;;;75.30;40.05;;;;;;;10.81;54.22;98661.94;251475;1151;101542;-67
2021/03/04 16:53:08;;;;;;;;;;;;;;;10.76;54.41;98663.20;251334;1150;101503;-66
2021/03/04 16:58:11;;;;;;;75.25;42.90;;;;;;;10.69;54.58;98677.88;251517;1150;101159;-66
2021/03/04 17:03:14;;;;;;;75.87;40.40;;;;;;;10.66;54.83;98684.26;251053;1158;101150;-66
2021/03/04 17:08:16;;;;;;;73.20;40.30;;;;;;;10.54;54.71;98670.00;251169;1150;102083;-66
2021/03/04 17:13:20;;;;;;;75.97;41.77;;;;;;;10.50;55.13;98672.98;250989;1158;102450;-66
2021/03/04 17:18:23;;;;;;;84.15;44.80;;;;;;;10.44;55.55;98674.23;251996;1149;101577;-63
2021/03/04 17:23:25;;;;;;;68.37;40.97;;;;;;;10.39;55.39;98671.02;251730;1157;101094;-62
2021/03/04 17:28:30;;;;;;;70.47;42.83;;;;;;;10.32;56.02;98680.36;252156;1150;100945;-61
2021/03/04 17:33:33;;;;;;;82.45;44.85;;;;;;;10.18;56.01;98667.95;251692;1158;100929;-62
2021/03/04 17:38:38;;;;;;;75.35;42.90;;;;;;;10.09;56.81;98672.09;252030;1149;102374;-65
2021/03/04 17:43:40;;;;;;;73.10;40.70;;;;;;;10.06;57.05;98650.17;251473;1157;101039;-66
2021/03/04 17:48:42;;;;;;;70.55;41.60;;;;;;;10.02;56.80;98652.19;252080;1150;102088;-67
2021/03/04 17:53:44;;;;;;;77.23;42.97;;;;;;;10.00;57.34;98647.91;251885;1157;101200;-69
2021/03/04 17:58:46;;;;;;;73.80;42.70;;;;;;;10.02;57.47;98644.20;251707;1150;100965;-65
2021/03/04 18:03:48;;;;;;;69.55;41.30;;;;;;;10.04;57.79;98644.94;252135;1157;102396;-63
2021/03/04 18:08:50;;;;;;;66.87;39.67;;;;;;;9.99;57.47;98644.41;252000;1150;101181;-64
2021/03/04 18:13:52;;;;;;;73.40;42.23;;;;;;;9.98;58.18;98649.81;252058;1157;101782;-67
2021/03/04 18:18:54;;;;;;;77.45;43.05;;;;;;;9.91;58.10;98636.91;252071;1149;101180;-64
2021/03/04 18:23:56;;;;;;;72.50;41.65;;;;;;;9.87;58.06;98643.39;250822;1158;103119;-67
2021/03/04 18:28:59;;;;;;;73.40;43.50;;;;;;;9.87;58.21;98627.45;250791;1151;103178;-67
2021/03/04 18:34:02;;;;;;;80.15;45.20;;;;;;;9.82;58.32;98631.38;250626;1156;103142;-65
2021/03/04 18:39:04;;;;;;;73.30;42.67;;;;;;;9.84;58.96;98626.80;251924;1151;101302;-65
2021/03/04 18:44:07;;;;;;;78.90;44.85;;;;;;;9.84;59.07;98632.11;252006;1158;101516;-67
2021/03/04 18:49:09;;;;;;;81.00;46.05;;;;;;;9.75;59.34;98624.73;249036;1149;103075;-64
2021/03/04 18:54:11;;;;;;;80.80;47.90;;;;;;;9.71;59.62;98622.30;250907;1156;103123;-63
2021/03/04 18:59:14;;;;;;;82.17;49.03;;;;;;;9.73;60.05;98614.22;251662;1150;102916;-63
2021/03/04 19:04:16;;;;;;;81.57;46.87;;;;;;;9.74;59.94;98615.06;252103;1157;102427;-65
2021/03/04 19:09:19;;;;;;;80.90;46.70;;;;;;;9.70;60.09;98622.39;252065;1151;102099;-66
2021/03/04 19:14:21;;;;;;;76.47;44.50;;;;;;;9.64;60.12;98625.44;252106;1157;101831;-66
2021/03/04 19:19:23;;;;;;;81.33;46.80;;;;;;;9.58;60.37;98618.73;251669;1150;101495;-65
2021/03/04 19:24:25;;;;;;;75.43;44.43;;;;;;;9.60;60.42;98624.78;251654;1157;101552;-64
2021/03/04 19:29:27;;;;;;;77.00;45.33;;;;;;;9.66;60.88;98628.86;252112;1150;101938;-64
2021/03/04 19:34:37;;;;;;;77.57;45.57;;;;;;;9.65;60.83;98616.53;251698;1157;101152;-65
2021/03/04 19:39:39;;;;;;;83.00;48.53;;;;;;;9.67;61.12;98615.45;252086;1150;101232;-62
2021/03/04 19:44:41;;;;;;;90.13;50.30;;;;;;;9.70;61.41;98612.61;251703;1157;101551;-64
2021/03/04 19:49:43;;;;;;;83.73;49.40;;;;;;;9.60;60.87;98621.28;251977;1151;101184;-64
2021/03/04 19:54:46;;;;;;;82.23;47.98;;;;;;;9.52;61.26;98616.47;251721;1157;101048;-63
2021/03/04 19:59:48;;;;;;;81.10;49.25;;;;;;;9.43;61.74;98615.24;251648;1150;102060;-63
2021/03/04 20:04:58;;;;;;;84.95;51.53;;;;;;;9.38;61.60;98619.16;252125;1157;101035;-64
2021/03/04 20:10:03;;;;;;;90.10;50.90;;;;;;;9.39;61.87;98616.39;251605;1151;102789;-64
2021/03/04 20:15:08;;;;;;;89.07;51.43;;;;;;;9.40;62.29;98625.21;251958;1157;101176;-64
2021/03/04 20:20:12;;;;;;;93.63;55.43;;;;;;;9.36;62.25;98639.64;251755;1150;102090;-64
2021/03/04 20:25:15;;;;;;;101.80;58.55;;;;;;;9.32;62.05;98635.48;251159;1158;101230;-63
2021/03/04 20:30:17;;;;;;;97.80;57.50;;;;;;;9.27;61.90;98637.56;251453;1150;101342;-66
2021/03/04 20:35:26;;;;;;;99.90;59.20;;;;;;;9.17;61.96;98632.85;251069;1157;103049;-66
2021/03/04 20:40:28;;;;;;;98.90;57.10;;;;;;;9.07;62.23;98634.38;250944;1151;100997;-63
2021/03/04 20:45:30;;;;;;;103.50;57.97;;;;;;;8.97;61.86;98626.13;251072;1151;101093;-63
2021/03/04 20:50:33;;;;;;;100.00;55.80;;;;;;;8.87;61.86;98630.30;250998;1151;101519;-63
2021/03/04 20:55:36;;;;;;;104.00;58.13;;;;;;;8.80;62.31;98631.63;250843;1152;101148;-63
2021/03/04 21:00:39;;;;;;;98.40;57.08;;;;;;;8.78;62.00;98630.00;251211;1158;101781;-63
2021/03/04 21:05:47;;;;;;;96.50;57.63;;;;;;;8.78;62.33;98640.63;250898;1152;101183;-63
2021/03/04 21:10:50;;;;;;;103.60;59.47;;;;;;;8.74;62.13;98630.19;251586;1157;101279;-63
2021/03/04 21:15:52;;;;;;;103.90;59.43;;;;;;;8.75;62.58;98615.13;251516;1157;102054;-62
2021/03/04 21:20:55;;;;;;;102.20;57.78;;;;;;;8.69;62.31;98618.99;252086;1157;101152;-63
2021/03/04 21:25:57;;;;;;;94.60;55.37;;;;;;;8.65;62.58;98621.94;252088;1149;101707;-63
2021/03/04 21:30:59;;;;;;;99.90;57.35;;;;;;;8.58;62.64;98620.61;251957;1157;101656;-63
2021/03/04 21:36:10;;;;;;;102.20;58.00;;;;;;;8.53;62.99;98615.59;250433;1149;103120;-65
2021/03/04 21:41:13;;;;;;;97.73;57.03;;;;;;;8.48;63.05;98610.55;251176;1151;101152;-70
2021/03/04 21:46:16;;;;;;;102.30;57.18;;;;;;;8.45;62.84;98617.84;251612;1151;101498;-67
2021/03/04 21:51:20;;;;;;;97.90;56.37;;;;;;;8.46;62.53;98627.52;251447;1157;101624;-66
2021/03/04 21:56:22;;;;;;;100.95;56.95;;;;;;;8.47;63.12;98622.11;251264;1151;101065;-67
2021/03/04 22:01:24;;;;;;;98.20;55.67;;;;;;;8.46;62.70;98627.52;251584;1157;101093;-67
2021/03/04 22:06:33;;;;;;;97.05;56.75;;;;;;;8.41;63.15;98627.77;251361;1151;101202;-66
2021/03/04 22:11:36;;;;;;;101.25;56.20;;;;;;;8.36;62.40;98627.17;251169;1151;101116;-66
2021/03/04 22:16:38;;;;;;;92.20;55.90;;;;;;;8.28;62.40;98635.56;251400;1153;102250;-65
2021/03/04 22:21:41;;;;;;;94.70;53.50;;;;;;;8.18;62.48;98633.55;251428;1157;101209;-66
2021/03/04 22:26:43;;;;;;;95.43;54.98;;;;;;;8.07;62.39;98639.48;251508;1151;101151;-65
2021/03/04 22:31:45;;;;;;;89.95;53.00;;;;;;;7.95;62.60;98661.41;250777;1151;101189;-64
2021/03/04 22:36:55;;;;;;;87.10;50.30;;;;;;;7.80;62.58;98661.32;251102;1151;100999;-65
2021/03/04 22:41:57;;;;;;;92.75;53.63;;;;;;;7.69;62.69;98662.88;251832;1151;101844;-64
2021/03/04 22:46:59;;;;;;;85.70;51.50;;;;;;;7.61;62.51;98663.32;251617;1149;101233;-65
2021/03/04 22:52:03;;;;;;;88.33;50.93;;;;;;;7.60;63.00;98672.18;251666;1157;101691;-65
2021/03/04 22:57:06;;;;;;;90.70;51.30;;;;;;;7.56;63.17;98681.24;251909;1150;102058;-65